createdAt,value
2023-05-25T00:03:05.798Z,3.20
2023-05-25T00:08:08.472Z,2.47
2023-05-25T00:13:12.364Z,2.38
2023-05-25T00:23:17.396Z,2.80
2023-05-25T00:28:21.464Z,2.70
2023-05-25T00:33:24.784Z,2.58
2023-05-25T00:38:28.028Z,3.00
2023-05-25T00:43:32.056Z,2.58
2023-05-25T00:48:34.674Z,3.17
2023-05-25T00:53:38.087Z,2.70
2023-05-25T00:58:44.031Z,2.45
2023-05-25T01:03:53.562Z,2.53
2023-05-25T01:09:02.715Z,2.90
2023-05-25T01:14:07.219Z,2.30
2023-05-25T01:19:10.934Z,2.55
2023-05-25T01:24:22.552Z,2.83
2023-05-25T01:29:27.125Z,3.10
2023-05-25T01:34:29.795Z,2.55
2023-05-25T01:39:33.755Z,3.17
2023-05-25T01:44:36.834Z,2.45
2023-05-25T01:49:44.236Z,3.22
2023-05-25T01:54:49.387Z,3.13
2023-05-25T01:59:53.677Z,3.58
2023-05-25T02:04:56.838Z,2.92
2023-05-25T02:10:01.430Z,3.60
2023-05-25T02:15:04.595Z,3.88
2023-05-25T02:20:08.603Z,4.23
2023-05-25T02:25:13.027Z,4.50
2023-05-25T02:30:16.149Z,4.80
2023-05-25T02:35:19.083Z,5.27
2023-05-25T02:40:23.179Z,5.20
2023-05-25T02:45:26.063Z,6.35
2023-05-25T02:50:28.660Z,4.75
2023-05-25T02:55:33.508Z,5.97
2023-05-25T03:00:36.693Z,5.63
2023-05-25T03:05:39.438Z,7.15
2023-05-25T03:10:43.535Z,6.00
2023-05-25T03:15:46.254Z,5.60
2023-05-25T03:20:49.365Z,4.53
2023-05-25T03:25:53.569Z,5.93
2023-05-25T03:30:56.671Z,4.82
2023-05-25T03:35:59.608Z,6.10
2023-05-25T03:41:04.019Z,6.33
2023-05-25T03:46:06.980Z,5.72
2023-05-25T03:51:09.858Z,5.63
2023-05-25T03:56:13.877Z,5.40
2023-05-25T04:01:17.010Z,5.55
2023-05-25T04:06:20.160Z,6.20
2023-05-25T04:11:29.754Z,5.13
2023-05-25T04:16:35.998Z,5.07
2023-05-25T04:21:39.087Z,4.55
2023-05-25T04:26:44.063Z,5.10
2023-05-25T04:31:47.366Z,3.88
2023-05-25T04:36:50.113Z,5.85
2023-05-25T04:41:54.050Z,5.47
2023-05-25T04:46:56.581Z,5.82
2023-05-25T04:51:59.196Z,5.93
2023-05-25T04:57:03.556Z,5.50
2023-05-25T05:02:06.336Z,5.22
2023-05-25T05:07:09.159Z,5.25
2023-05-25T05:12:13.613Z,5.87
2023-05-25T05:17:18.038Z,6.82
2023-05-25T05:22:21.014Z,6.18
2023-05-25T05:27:26.653Z,5.03
2023-05-25T05:32:29.527Z,5.40
2023-05-25T05:37:32.437Z,5.77
2023-05-25T05:42:36.442Z,5.67
2023-05-25T05:47:39.243Z,5.70
2023-05-25T05:52:42.278Z,5.43
2023-05-25T05:57:46.520Z,5.57
2023-05-25T06:02:49.363Z,5.45
2023-05-25T06:07:52.483Z,6.37
2023-05-25T06:12:56.412Z,5.77
2023-05-25T06:17:59.323Z,5.95
2023-05-25T06:23:02.404Z,5.07
2023-05-25T06:28:07.565Z,5.75
2023-05-25T06:33:10.489Z,6.43
2023-05-25T06:38:13.529Z,5.77
2023-05-25T06:43:17.783Z,6.13
2023-05-25T06:48:20.569Z,6.00
2023-05-25T06:53:23.667Z,5.90
2023-05-25T06:58:28.025Z,5.05
2023-05-25T07:03:31.000Z,6.78
2023-05-25T07:08:33.921Z,5.53
2023-05-25T07:13:37.900Z,6.40
2023-05-25T07:18:40.692Z,4.80
2023-05-25T07:23:43.310Z,5.80
2023-05-25T07:28:47.734Z,5.72
2023-05-25T07:33:50.800Z,5.72
2023-05-25T07:38:54.491Z,5.78
2023-05-25T07:49:03.393Z,6.05
2023-05-25T07:54:06.329Z,6.25
2023-05-25T07:59:09.436Z,5.55
2023-05-25T08:04:13.920Z,6.28
2023-05-25T08:09:16.513Z,4.80
2023-05-25T08:14:19.068Z,5.43
2023-05-25T08:19:23.030Z,5.22
2023-05-25T08:24:29.360Z,3.60
2023-05-25T08:29:32.153Z,5.50
2023-05-25T08:34:36.145Z,4.30
2023-05-25T08:39:38.725Z,5.90
2023-05-25T08:44:41.583Z,5.45
2023-05-25T08:49:45.938Z,4.77
2023-05-25T08:54:50.436Z,4.65
2023-05-25T08:59:54.170Z,6.00
2023-05-25T09:05:00.439Z,4.32
2023-05-25T09:10:04.109Z,4.22
2023-05-25T09:15:07.577Z,4.95
2023-05-25T09:25:16.545Z,5.35
2023-05-25T09:30:19.094Z,3.63
2023-05-25T09:35:23.255Z,4.70
2023-05-25T09:40:27.573Z,5.43
2023-05-25T09:45:30.190Z,5.60
2023-05-25T09:50:33.533Z,5.40
2023-05-25T09:55:52.036Z,5.43
2023-05-25T10:00:56.282Z,4.65
2023-05-25T10:05:59.059Z,5.00
2023-05-25T10:11:04.137Z,4.15
2023-05-25T10:16:09.601Z,6.30
2023-05-25T10:21:13.164Z,6.13
2023-05-25T10:26:21.473Z,5.57
2023-05-25T10:31:34.659Z,3.97
2023-05-25T10:37:02.029Z,7.22
2023-05-25T10:47:47.799Z,6.82
2023-05-25T10:53:07.804Z,7.05
2023-05-25T10:58:17.991Z,7.13
2023-05-25T11:03:29.224Z,7.30
2023-05-25T11:09:07.347Z,7.03
2023-05-25T11:14:30.548Z,7.40
2023-05-25T11:19:53.169Z,7.65
2023-05-25T11:25:03.144Z,7.57
2023-05-25T11:30:16.035Z,6.60
2023-05-25T11:40:43.480Z,7.15
2023-05-25T11:46:02.368Z,7.40
2023-05-25T11:51:24.636Z,6.90
2023-05-25T11:56:36.948Z,7.20
2023-05-25T12:01:45.273Z,6.40
2023-05-25T12:06:59.844Z,7.18
2023-05-25T12:12:18.904Z,6.03
2023-05-25T12:17:29.253Z,5.95
2023-05-25T12:22:44.361Z,6.28
2023-05-25T12:28:11.314Z,6.93
2023-05-25T12:33:35.193Z,7.07
2023-05-25T12:39:01.661Z,5.88
2023-05-25T12:44:08.456Z,5.80
2023-05-25T12:49:29.381Z,6.05
2023-05-25T12:54:58.116Z,7.23
2023-05-25T13:00:05.174Z,6.57
2023-05-25T13:05:24.679Z,5.88
2023-05-25T13:10:38.748Z,6.95
2023-05-25T13:16:06.553Z,7.53
2023-05-25T13:21:25.800Z,6.43
2023-05-25T13:26:33.884Z,6.45
2023-05-25T13:31:56.335Z,6.05
2023-05-25T13:37:06.972Z,7.20
2023-05-25T13:42:11.876Z,6.57
2023-05-25T13:47:26.012Z,7.03
2023-05-25T13:52:45.185Z,6.72
2023-05-25T13:57:50.328Z,6.85
2023-05-25T14:03:18.201Z,6.85
2023-05-25T14:08:27.000Z,6.55
2023-05-25T14:13:50.770Z,6.32
2023-05-25T14:19:00.109Z,6.45
2023-05-25T14:24:17.303Z,6.40
2023-05-25T14:29:43.244Z,5.97
2023-05-25T14:35:03.275Z,6.15
2023-05-25T14:40:13.514Z,5.53
2023-05-25T14:45:33.750Z,5.20
2023-05-25T14:50:48.291Z,5.93
2023-05-25T14:56:08.438Z,5.75
2023-05-25T15:01:25.560Z,6.65
2023-05-25T15:06:33.373Z,5.20
2023-05-25T15:11:48.060Z,6.43
2023-05-25T15:17:02.437Z,5.60
2023-05-25T15:22:09.336Z,4.90
2023-05-25T15:27:16.933Z,5.93
2023-05-25T15:32:23.771Z,5.82
2023-05-25T15:37:47.577Z,4.78
2023-05-25T15:42:54.399Z,5.10
2023-05-25T15:47:59.917Z,4.95
2023-05-25T15:53:12.592Z,4.88
2023-05-25T16:03:25.622Z,4.90
2023-05-25T16:08:38.186Z,4.40
2023-05-25T16:13:45.544Z,4.20
2023-05-25T17:28:42.502Z,4.28
2023-05-25T17:33:45.224Z,3.80
2023-05-25T17:38:47.787Z,3.72
2023-05-25T17:43:51.883Z,4.25
2023-05-25T17:48:54.989Z,4.18
2023-05-25T17:53:58.002Z,4.07
2023-05-25T17:59:02.413Z,4.78
2023-05-25T18:04:05.390Z,4.00
2023-05-25T18:09:08.172Z,3.90
2023-05-25T18:14:12.207Z,3.90
2023-05-25T18:19:16.649Z,4.00
2023-05-25T18:24:19.857Z,3.90
2023-05-25T18:29:24.140Z,3.55
2023-05-25T18:34:28.086Z,4.40
2023-05-25T18:39:30.976Z,4.20
2023-05-25T18:44:36.538Z,4.18
2023-05-25T18:49:39.344Z,4.55
2023-05-25T18:54:42.256Z,4.10
2023-05-25T18:59:46.288Z,4.10
2023-05-25T19:04:49.584Z,4.63
2023-05-25T19:09:52.594Z,4.72
2023-05-25T19:14:57.087Z,3.67
2023-05-25T19:20:00.193Z,4.85
2023-05-25T19:25:03.000Z,5.53
2023-05-25T19:30:07.846Z,4.70
2023-05-25T19:35:10.883Z,4.65
2023-05-25T19:40:14.317Z,4.30
2023-05-25T19:50:23.411Z,4.72
2023-05-25T19:55:26.571Z,5.47
2023-05-25T20:00:29.701Z,5.10
2023-05-25T20:05:34.014Z,6.35
2023-05-25T20:10:39.154Z,7.43
2023-05-25T20:15:41.949Z,6.50
2023-05-25T20:20:46.111Z,6.38
2023-05-25T20:25:48.893Z,8.90
2023-05-25T20:30:51.854Z,6.00
2023-05-25T20:35:56.299Z,6.07
2023-05-25T20:40:59.332Z,6.38
2023-05-25T20:46:02.787Z,6.80
2023-05-25T20:56:09.808Z,7.28
2023-05-25T21:01:12.503Z,15.15
2023-05-25T21:06:16.400Z,7.33
2023-05-25T21:11:23.436Z,7.00
2023-05-25T21:16:26.532Z,6.68
2023-05-25T21:21:33.701Z,7.32
2023-05-25T21:26:38.120Z,7.28
2023-05-25T21:31:40.874Z,6.80
2023-05-25T21:36:43.722Z,7.10
2023-05-25T21:41:47.842Z,7.10
2023-05-25T21:46:58.819Z,7.22
2023-05-25T21:52:01.611Z,7.07
2023-05-25T21:57:05.841Z,7.63
2023-05-25T22:02:08.491Z,6.97
2023-05-25T22:07:11.251Z,8.20
2023-05-25T22:12:18.431Z,6.90
2023-05-25T22:17:21.724Z,6.57
2023-05-25T22:22:25.042Z,7.28
2023-05-25T22:27:29.503Z,7.05
2023-05-25T22:32:32.466Z,6.82
2023-05-25T22:37:35.523Z,6.70
2023-05-25T22:42:40.024Z,6.75
2023-05-25T22:47:43.004Z,6.93
2023-05-25T22:52:46.414Z,7.63
2023-05-25T22:57:51.020Z,6.93
2023-05-25T23:02:53.677Z,6.95
2023-05-25T23:07:58.717Z,7.50
2023-05-25T23:13:02.801Z,7.30
2023-05-25T23:18:05.633Z,7.25
2023-05-25T23:23:08.355Z,7.23
2023-05-25T23:28:12.318Z,6.72
2023-05-25T23:33:15.220Z,6.22
2023-05-25T23:38:17.974Z,6.47
2023-05-25T23:43:22.422Z,6.78
2023-05-25T23:48:25.326Z,6.47
2023-05-25T23:53:27.951Z,7.37
2023-05-25T23:58:32.141Z,7.70
